Time;durP1;ratioP1;P1;durP2;ratioP2;P2;SDS_P1;SDS_P2;PMS_P1;PMS_P2;Temp;Humidity;BMP_temperature;BMP_pressure;BME280_temperature;BME280_humidity;BME280_pressure;Samples;Min_cycle;Max_cycle;Signal;HPM_P1;HPM_P2
2023/01/29 00:01:29;;;;;;;12.40;11.10;;;2.60;99.90;;;;;;5115926;28;20425;-37
2023/01/29 00:03:55;;;;;;;14.83;11.47;;;2.50;99.90;;;;;;5115049;28;20558;-37
2023/01/29 00:06:22;;;;;;;13.93;12.50;;;2.50;99.90;;;;;;5115407;28;20193;-38
2023/01/29 00:08:48;;;;;;;53.73;13.13;;;2.50;99.90;;;;;;5116054;28;20172;-36
2023/01/29 00:11:13;;;;;;;12.40;10.70;;;2.50;99.90;;;;;;5115597;28;20429;-35
2023/01/29 00:13:39;;;;;;;11.90;10.70;;;2.50;99.90;;;;;;5114382;28;20196;-36
2023/01/29 00:16:05;;;;;;;12.90;11.47;;;2.50;99.90;;;;;;5113233;28;20172;-36
2023/01/29 00:18:30;;;;;;;12.73;10.67;;;2.50;99.90;;;;;;5114170;28;20200;-36
2023/01/29 00:20:56;;;;;;;11.57;9.97;;;2.50;99.90;;;;;;5113561;28;20429;-36
2023/01/29 00:23:23;;;;;;;12.77;11.40;;;2.50;99.90;;;;;;5112943;28;20666;-36
2023/01/29 00:25:49;;;;;;;12.10;10.90;;;2.50;99.90;;;;;;5114660;28;20446;-36
2023/01/29 00:28:15;;;;;;;12.10;10.90;;;2.50;99.90;;;;;;5114445;28;20426;-36
2023/01/29 00:30:41;;;;;;;13.07;11.50;;;2.50;99.90;;;;;;5115670;28;20176;-36
2023/01/29 00:33:07;;;;;;;11.53;10.33;;;2.50;99.90;;;;;;5116794;28;20409;-36
2023/01/29 00:35:33;;;;;;;12.00;10.83;;;2.50;99.90;;;;;;5114011;28;20664;-36
2023/01/29 00:37:58;;;;;;;13.67;10.90;;;2.50;99.90;;;;;;5114737;28;20445;-38
2023/01/29 00:40:25;;;;;;;11.37;10.20;;;2.50;99.90;;;;;;5114458;28;20449;-37
2023/01/29 00:45:35;;;;;;;12.47;11.13;;;2.50;99.90;;;;;;5114682;28;20667;-37
2023/01/29 00:48:02;;;;;;;12.13;10.70;;;2.50;99.90;;;;;;5114103;28;20409;-37
2023/01/29 00:50:28;;;;;;;12.87;9.90;;;2.50;99.90;;;;;;5115334;28;20670;-36
2023/01/29 00:52:54;;;;;;;10.70;9.50;;;2.50;99.90;;;;;;5114504;28;20410;-37
2023/01/29 00:55:19;;;;;;;11.43;10.33;;;2.50;99.90;;;;;;5115784;28;20465;-37
2023/01/29 00:57:45;;;;;;;11.67;10.33;;;2.50;99.90;;;;;;5115826;28;20202;-38
2023/01/29 01:00:14;;;;;;;11.20;9.87;;;2.50;99.90;;;;;;5117758;28;20182;-38
2023/01/29 01:05:24;;;;;;;11.37;10.27;;;2.60;99.90;;;;;;5118711;28;20775;-37
2023/01/29 01:07:52;;;;;;;10.67;9.10;;;2.60;99.90;;;;;;5119957;28;20459;-37
2023/01/29 01:10:21;;;;;;;11.00;9.90;;;2.60;99.90;;;;;;5119505;27;20430;-37
2023/01/29 01:12:58;;;;;;;11.73;10.40;;;2.60;99.90;;;;;;5117906;28;20505;-38
2023/01/29 01:15:27;;;;;;;10.67;9.57;;;2.60;99.90;;;;;;5116991;28;20940;-37
2023/01/29 01:17:54;;;;;;;10.73;9.63;;;2.60;99.90;;;;;;5117291;28;20474;-37
2023/01/29 01:20:21;;;;;;;9.87;8.93;;;2.60;99.90;;;;;;5118146;28;20566;-38
2023/01/29 01:22:46;;;;;;;9.87;8.97;;;2.50;99.90;;;;;;5115708;28;20537;-38
2023/01/29 01:25:12;;;;;;;10.43;9.37;;;2.50;99.90;;;;;;5117169;28;20413;-38
2023/01/29 01:27:40;;;;;;;9.40;7.93;;;2.50;99.90;;;;;;5116856;28;20248;-37
2023/01/29 01:30:08;;;;;;;9.10;8.20;;;2.50;99.90;;;;;;5118571;28;20164;-39
2023/01/29 01:32:34;;;;;;;7.87;7.17;;;2.50;99.90;;;;;;5118572;28;20862;-39
2023/01/29 01:34:59;;;;;;;7.77;7.07;;;2.50;54.20;;;;;;5118420;28;20597;-37
2023/01/29 01:37:25;;;;;;;8.17;7.37;;;2.50;12.30;;;;;;5119444;28;20184;-37
2023/01/29 01:39:50;;;;;;;10.00;8.77;;;2.50;18.20;;;;;;5118184;28;20164;-38
2023/01/29 01:42:16;;;;;;;8.13;7.33;;;2.50;27.50;;;;;;5116658;28;20180;-38
2023/01/29 01:45:05;;;;;;;7.90;7.00;;;2.50;37.60;;;;;;5117116;28;20172;-38
2023/01/29 01:47:36;;;;;;;9.33;8.43;;;2.50;37.30;;;;;;5117354;28;20176;-36
2023/01/29 01:50:09;;;;;;;9.67;8.20;;;2.50;45.50;;;;;;5116563;28;20421;-37
2023/01/29 01:52:36;;;;;;;8.00;7.13;;;2.50;40.50;;;;;;5116325;28;20432;-37
2023/01/29 01:55:03;;;;;;;8.73;7.83;;;2.50;34.10;;;;;;5116607;28;20740;-36
2023/01/29 01:57:29;;;;;;;9.27;8.00;;;2.50;39.20;;;;;;5114060;28;20418;-36
2023/01/29 02:00:09;;;;;;;8.47;7.67;;;2.50;40.00;;;;;;5115907;28;20501;-36
2023/01/29 02:10:50;;;;;;;7.67;6.97;;;2.50;1.00;;;;;;5117297;28;20494;-36
2023/01/29 02:13:17;;;;;;;7.50;6.80;;;2.50;1.00;;;;;;5117354;28;20417;-37
2023/01/29 02:15:47;;;;;;;7.70;6.73;;;2.50;1.00;;;;;;5116284;28;20244;-36
2023/01/29 02:18:18;;;;;;;8.00;7.17;;;2.50;1.00;;;;;;5115715;28;20417;-36
2023/01/29 02:21:02;;;;;;;7.97;7.17;;;2.50;1.00;;;;;;5116091;28;20428;-36
2023/01/29 02:24:01;;;;;;;8.30;7.17;;;2.50;1.00;;;;;;5116320;28;20469;-36
2023/01/29 02:26:56;;;;;;;8.10;7.30;;;2.50;1.00;;;;;;5117112;28;20437;-36
2023/01/29 02:29:26;;;;;;;8.23;7.40;;;2.40;1.00;;;;;;5115700;28;20444;-36
2023/01/29 02:32:16;;;;;;;13.57;7.23;;;2.40;1.00;;;;;;5117942;28;20728;-36
2023/01/29 02:37:54;;;;;;;8.33;7.53;;;2.40;1.00;;;;;;5117638;28;20782;-37
2023/01/29 02:40:39;;;;;;;7.93;7.10;;;2.40;1.00;;;;;;5118695;28;20421;-36
2023/01/29 02:43:34;;;;;;;7.77;7.07;;;2.40;1.00;;;;;;5118279;28;20401;-37
2023/01/29 02:46:20;;;;;;;7.93;7.13;;;2.40;1.00;;;;;;5119153;28;20418;-37
2023/01/29 02:48:57;;;;;;;7.80;7.07;;;2.40;1.00;;;;;;5116816;28;20406;-36
2023/01/29 02:51:31;;;;;;;6.80;6.20;;;2.40;1.00;;;;;;5118137;28;20457;-37
2023/01/29 02:54:09;;;;;;;7.50;6.80;;;2.40;1.00;;;;;;5118045;28;20496;-37
2023/01/29 02:57:04;;;;;;;8.40;7.60;;;2.40;1.00;;;;;;5117798;28;20695;-36
2023/01/29 02:59:56;;;;;;;7.50;6.70;;;2.40;1.00;;;;;;5116259;28;20457;-37
2023/01/29 03:02:32;;;;;;;8.63;7.07;;;2.40;1.00;;;;;;5100522;28;20455;-37
2023/01/29 03:05:00;;;;;;;7.60;6.90;;;2.40;1.00;;;;;;5117602;28;20412;-37
2023/01/29 03:07:42;;;;;;;7.70;6.90;;;2.40;1.00;;;;;;5117608;28;20795;-37
2023/01/29 03:10:17;;;;;;;8.40;7.37;;;2.40;1.00;;;;;;5117903;28;20413;-36
2023/01/29 03:12:45;;;;;;;8.10;6.70;;;2.40;1.00;;;;;;5118606;28;20428;-37
2023/01/29 03:15:17;;;;;;;8.80;8.00;;;2.40;1.00;;;;;;5117175;28;20561;-36
2023/01/29 03:18:10;;;;;;;8.60;7.50;;;2.40;1.00;;;;;;5118826;28;20425;-36
2023/01/29 03:20:49;;;;;;;8.90;8.00;;;2.40;1.00;;;;;;5117559;28;20402;-36
2023/01/29 03:23:25;;;;;;;8.53;7.63;;;2.40;1.00;;;;;;5117492;28;20469;-37
2023/01/29 03:34:22;;;;;;;8.23;6.60;;;2.40;1.00;;;;;;5095701;28;20837;-38
2023/01/29 03:36:54;;;;;;;7.73;6.97;;;2.40;1.00;;;;;;5097237;28;20433;-38
2023/01/29 03:39:21;;;;;;;7.63;6.83;;;2.30;1.00;;;;;;5096190;28;20507;-37
2023/01/29 03:41:55;;;;;;;8.50;7.60;;;2.30;1.00;;;;;;5095344;28;20797;-37
2023/01/29 03:44:59;;;;;;;7.37;6.60;;;2.30;1.00;;;;;;5100699;28;20425;-37
2023/01/29 03:47:47;;;;;;;9.00;7.10;;;2.30;1.00;;;;;;5041034;28;20463;-37
2023/01/29 03:50:16;;;;;;;7.50;6.80;;;2.30;1.00;;;;;;5113688;28;20494;-36
2023/01/29 03:52:59;;;;;;;8.20;7.40;;;2.30;1.00;;;;;;5116809;28;20421;-35
2023/01/29 03:55:36;;;;;;;7.53;6.60;;;2.30;1.00;;;;;;5116466;28;20894;-36
2023/01/29 03:58:14;;;;;;;7.90;7.20;;;2.30;1.00;;;;;;5117594;28;20421;-37
2023/01/29 04:00:57;;;;;;;7.63;6.90;;;2.30;1.00;;;;;;5117739;28;20433;-36
2023/01/29 04:03:28;;;;;;;7.97;6.80;;;2.30;1.00;;;;;;5117071;28;20459;-36
2023/01/29 04:06:08;;;;;;;8.00;7.00;;;2.30;1.00;;;;;;5115385;28;20600;-36
2023/01/29 04:08:41;;;;;;;8.07;7.27;;;2.30;1.00;;;;;;5098459;28;20547;-36
2023/01/29 04:11:13;;;;;;;8.33;7.53;;;2.30;1.00;;;;;;5115878;28;20463;-35
2023/01/29 04:13:39;;;;;;;8.33;7.53;;;2.30;1.00;;;;;;5116289;28;20823;-36
2023/01/29 04:16:08;;;;;;;8.20;7.20;;;2.30;1.00;;;;;;5117275;28;20421;-36
2023/01/29 04:18:34;;;;;;;7.40;6.77;;;2.30;1.00;;;;;;5116337;28;20508;-36
2023/01/29 04:21:00;;;;;;;8.40;7.50;;;2.30;1.00;;;;;;5112610;28;20442;-36
2023/01/29 04:23:26;;;;;;;9.13;7.30;;;2.30;1.00;;;;;;5117565;28;20480;-36
2023/01/29 04:26:21;;;;;;;8.60;7.70;;;2.30;1.00;;;;;;5117157;28;20175;-36
2023/01/29 04:29:02;;;;;;;8.37;7.50;;;2.30;1.00;;;;;;5061827;28;20431;-37
2023/01/29 04:31:33;;;;;;;7.90;7.07;;;2.30;1.00;;;;;;5116928;28;20663;-36
2023/01/29 04:34:05;;;;;;;8.90;7.47;;;2.30;1.00;;;;;;5101425;28;20503;-36
2023/01/29 04:36:43;;;;;;;7.87;7.07;;;2.30;1.00;;;;;;5121207;28;20509;-36
2023/01/29 04:39:20;;;;;;;7.10;6.47;;;2.30;1.00;;;;;;5121549;28;20413;-36
2023/01/29 04:41:57;;;;;;;8.17;7.37;;;2.30;1.00;;;;;;5120417;28;20414;-36
2023/01/29 04:44:29;;;;;;;7.60;6.80;;;2.30;1.00;;;;;;5121471;28;20425;-36
2023/01/29 04:47:10;;;;;;;10.03;7.30;;;2.30;1.00;;;;;;5121470;28;20693;-37
2023/01/29 04:49:44;;;;;;;8.50;7.23;;;2.30;1.00;;;;;;5120051;28;20420;-37
2023/01/29 04:52:19;;;;;;;9.53;8.40;;;2.30;1.00;;;;;;5119331;28;20482;-38
2023/01/29 04:54:57;;;;;;;9.43;8.53;;;2.30;1.00;;;;;;5120240;28;20473;-37
2023/01/29 04:57:27;;;;;;;8.83;7.70;;;2.30;1.00;;;;;;5120600;28;20416;-38
2023/01/29 05:00:16;;;;;;;9.07;7.80;;;2.30;1.00;;;;;;5121277;28;20402;-38
2023/01/29 05:02:42;;;;;;;9.63;7.60;;;2.30;1.00;;;;;;5120194;28;20518;-37
2023/01/29 05:05:09;;;;;;;8.57;7.67;;;2.30;1.00;;;;;;5117540;28;20413;-38
2023/01/29 05:07:36;;;;;;;8.80;7.90;;;2.30;1.00;;;;;;5117704;28;20734;-38
2023/01/29 05:10:04;;;;;;;9.50;8.60;;;2.30;1.00;;;;;;5117371;28;20828;-38
2023/01/29 05:12:30;;;;;;;8.27;7.37;;;2.40;1.00;;;;;;5118095;28;20712;-38
2023/01/29 05:15:00;;;;;;;9.07;8.17;;;2.30;1.00;;;;;;5119015;28;20595;-38
2023/01/29 05:17:26;;;;;;;8.40;7.50;;;2.40;1.00;;;;;;5118953;28;20429;-38
2023/01/29 05:19:52;;;;;;;9.07;7.53;;;2.30;1.00;;;;;;5119025;28;20453;-38
2023/01/29 05:22:21;;;;;;;9.20;7.80;;;2.30;1.00;;;;;;5119242;28;20869;-39
2023/01/29 05:24:50;;;;;;;8.13;7.33;;;2.30;1.00;;;;;;5120188;28;20523;-38
2023/01/29 05:30:13;;;;;;;8.70;7.17;;;2.30;99.90;;;;;;5120089;28;20822;-37
2023/01/29 05:32:39;;;;;;;8.67;7.80;;;2.30;99.90;;;;;;5119605;28;20426;-38
2023/01/29 05:35:05;;;;;;;7.90;7.10;;;2.30;99.90;;;;;;5119993;28;20207;-37
2023/01/29 05:37:30;;;;;;;8.30;7.37;;;2.30;99.90;;;;;;5119896;28;20195;-38
2023/01/29 05:39:56;;;;;;;7.53;6.83;;;2.30;99.90;;;;;;5120388;28;20509;-37
2023/01/29 05:42:22;;;;;;;8.10;6.80;;;2.30;99.90;;;;;;5119356;28;20186;-38
2023/01/29 05:44:48;;;;;;;7.10;6.40;;;2.30;99.90;;;;;;5118526;27;20613;-38
2023/01/29 05:47:18;;;;;;;7.43;6.70;;;2.30;99.90;;;;;;5119426;28;20445;-37
2023/01/29 05:49:44;;;;;;;8.30;7.50;;;2.30;99.90;;;;;;5119924;28;20502;-38
2023/01/29 05:52:09;;;;;;;7.43;6.73;;;2.30;99.90;;;;;;5118094;28;20507;-38
2023/01/29 05:54:35;;;;;;;8.80;7.90;;;2.30;99.90;;;;;;5117945;28;20203;-38
2023/01/29 05:57:00;;;;;;;7.70;6.90;;;2.30;99.90;;;;;;5118501;28;20459;-38
2023/01/29 05:59:26;;;;;;;7.63;6.93;;;2.40;99.90;;;;;;5118241;28;20180;-38
2023/01/29 06:01:52;;;;;;;8.10;7.30;;;2.40;99.90;;;;;;5118142;28;20172;-37
2023/01/29 06:04:17;;;;;;;8.50;7.50;;;2.30;99.90;;;;;;5118339;28;20183;-38
2023/01/29 06:06:43;;;;;;;8.17;7.30;;;2.30;99.90;;;;;;5118392;28;20554;-39
2023/01/29 06:09:10;;;;;;;8.70;7.77;;;2.30;99.90;;;;;;5118764;28;20184;-38
2023/01/29 06:11:50;;;;;;;7.93;7.13;;;2.30;99.90;;;;;;5118886;28;20191;-38
2023/01/29 06:14:20;;;;;;;8.60;7.80;;;2.30;99.90;;;;;;5118272;28;20482;-37
2023/01/29 06:16:46;;;;;;;8.23;7.33;;;2.30;99.90;;;;;;5118259;28;20417;-37
2023/01/29 06:19:11;;;;;;;7.93;7.23;;;2.30;99.90;;;;;;5118020;28;20823;-37
2023/01/29 06:21:37;;;;;;;8.53;7.67;;;2.30;99.90;;;;;;5118116;28;20176;-38
2023/01/29 06:24:03;;;;;;;8.77;7.90;;;2.30;99.90;;;;;;5117954;28;20240;-37
2023/01/29 06:26:28;;;;;;;9.33;8.43;;;2.20;99.90;;;;;;5118707;28;20187;-37
2023/01/29 06:28:54;;;;;;;8.20;7.40;;;2.30;99.90;;;;;;5118983;28;20475;-38
2023/01/29 06:31:20;;;;;;;8.83;8.03;;;2.20;99.90;;;;;;5117567;28;20183;-38
2023/01/29 06:33:45;;;;;;;9.23;8.23;;;2.20;99.90;;;;;;5117094;28;20297;-38
2023/01/29 06:36:11;;;;;;;9.00;8.10;;;2.20;99.90;;;;;;5118957;28;20172;-38
2023/01/29 06:38:36;;;;;;;9.77;8.77;;;2.20;99.90;;;;;;5118360;28;20180;-38
2023/01/29 06:41:14;;;;;;;9.10;7.77;;;2.20;99.90;;;;;;5118282;28;20179;-38
2023/01/29 06:43:39;;;;;;;10.17;8.60;;;2.20;99.90;;;;;;5117957;28;20536;-38
2023/01/29 06:46:06;;;;;;;8.53;7.73;;;2.20;99.90;;;;;;5118043;28;20428;-38
2023/01/29 06:48:32;;;;;;;9.43;8.20;;;2.20;99.90;;;;;;5118953;28;20618;-38
2023/01/29 06:51:06;;;;;;;8.97;8.07;;;2.20;99.90;;;;;;5119021;28;20401;-38
2023/01/29 06:53:36;;;;;;;8.80;7.93;;;2.20;99.90;;;;;;5120874;28;20203;-38
2023/01/29 06:56:02;;;;;;;9.27;7.87;;;2.20;99.90;;;;;;5121354;28;20409;-38
2023/01/29 06:58:28;;;;;;;9.83;8.83;;;2.20;99.90;;;;;;5120253;28;20437;-38
2023/01/29 07:00:54;;;;;;;9.33;8.43;;;2.20;99.90;;;;;;5115680;28;20419;-38
2023/01/29 07:03:19;;;;;;;8.90;8.00;;;2.30;99.90;;;;;;5098585;28;20188;-38
2023/01/29 07:05:51;;;;;;;9.13;8.33;;;2.30;79.90;;;;;;5099579;28;20188;-38
2023/01/29 07:08:17;;;;;;;9.87;8.87;;;2.20;77.50;;;;;;5080964;28;20233;-38
2023/01/29 07:10:43;;;;;;;8.33;7.57;;;2.20;86.00;;;;;;5096227;28;20475;-38
2023/01/29 07:13:09;;;;;;;8.63;7.80;;;2.30;92.00;;;;;;5095903;28;20723;-38
2023/01/29 07:15:35;;;;;;;9.70;8.80;;;2.30;98.50;;;;;;5096115;28;20229;-38
2023/01/29 07:18:03;;;;;;;11.90;8.60;;;2.30;99.90;;;;;;5095806;28;20188;-40
2023/01/29 07:20:29;;;;;;;10.90;9.90;;;2.30;99.90;;;;;;5096011;28;20531;-39
2023/01/29 07:22:56;;;;;;;10.17;9.17;;;2.40;89.30;;;;;;5096112;28;20432;-38
2023/01/29 07:25:22;;;;;;;10.80;9.73;;;2.40;75.50;;;;;;5097536;28;20428;-37
2023/01/29 07:27:48;;;;;;;11.50;10.30;;;2.40;58.90;;;;;;5096375;28;20438;-38
2023/01/29 07:30:14;;;;;;;12.00;10.40;;;2.40;51.90;;;;;;5095750;28;20214;-37
2023/01/29 07:32:40;;;;;;;11.03;10.03;;;2.40;47.40;;;;;;5095146;28;20689;-38
2023/01/29 07:35:06;;;;;;;11.20;10.07;;;2.40;43.50;;;;;;5094624;28;20469;-38
2023/01/29 07:37:32;;;;;;;10.60;9.70;;;2.40;46.30;;;;;;5096388;28;20430;-37
2023/01/29 07:39:57;;;;;;;11.10;9.90;;;2.50;49.90;;;;;;5097050;28;20402;-38
2023/01/29 07:42:23;;;;;;;11.73;8.83;;;2.50;51.70;;;;;;5096432;28;20608;-38
2023/01/29 07:44:49;;;;;;;9.30;8.50;;;2.50;43.80;;;;;;5095844;28;20174;-38
2023/01/29 07:47:14;;;;;;;10.17;9.17;;;2.50;34.80;;;;;;5096133;28;20231;-36
2023/01/29 07:49:40;;;;;;;11.07;10.03;;;2.50;33.50;;;;;;5097030;28;20538;-37
2023/01/29 07:52:06;;;;;;;9.43;8.47;;;2.60;31.90;;;;;;5096709;28;20378;-38
2023/01/29 07:54:31;;;;;;;9.60;8.70;;;2.70;17.20;;;;;;5095165;28;20211;-39
2023/01/29 07:56:57;;;;;;;9.80;8.77;;;2.70;5.30;;;;;;5093683;28;20172;-37
2023/01/29 07:59:23;;;;;;;10.03;9.13;;;2.80;1.00;;;;;;5095468;28;20202;-37
2023/01/29 08:01:48;;;;;;;10.10;9.13;;;2.80;1.00;;;;;;5095516;28;20286;-37
2023/01/29 08:04:14;;;;;;;11.63;10.43;;;2.80;1.00;;;;;;5095974;28;20506;-37
2023/01/29 08:06:39;;;;;;;10.50;9.40;;;2.80;1.00;;;;;;5094465;28;20539;-38
2023/01/29 08:09:06;;;;;;;9.77;8.80;;;2.90;1.00;;;;;;5096680;28;20230;-38
2023/01/29 08:11:31;;;;;;;9.57;8.73;;;2.90;1.00;;;;;;5098552;28;20392;-38
2023/01/29 08:13:57;;;;;;;11.03;9.90;;;2.90;1.00;;;;;;5099143;28;20474;-38
2023/01/29 08:16:23;;;;;;;10.53;9.53;;;3.00;1.00;;;;;;5098303;28;20177;-38
2023/01/29 08:18:48;;;;;;;10.20;9.20;;;3.00;1.00;;;;;;5098026;28;20165;-37
2023/01/29 08:21:15;;;;;;;12.00;10.80;;;3.00;1.00;;;;;;5098804;28;20172;-38
2023/01/29 08:23:40;;;;;;;14.23;11.23;;;3.00;1.00;;;;;;5099344;28;20286;-38
2023/01/29 08:26:06;;;;;;;12.00;10.03;;;3.10;1.00;;;;;;5100066;28;20409;-37
2023/01/29 08:28:32;;;;;;;12.37;11.17;;;3.10;1.00;;;;;;5098303;28;20215;-38
2023/01/29 08:30:58;;;;;;;10.67;9.77;;;3.00;1.00;;;;;;5098517;28;20168;-38
2023/01/29 08:33:26;;;;;;;11.00;9.90;;;3.10;1.00;;;;;;5097342;28;20861;-37
2023/01/29 08:35:52;;;;;;;11.40;10.30;;;3.00;1.00;;;;;;5096803;28;20257;-39
2023/01/29 08:38:17;;;;;;;10.50;9.50;;;3.10;1.00;;;;;;5095345;28;20508;-38
2023/01/29 08:40:43;;;;;;;11.43;10.40;;;3.20;1.00;;;;;;5097447;28;20165;-37
2023/01/29 08:43:10;;;;;;;10.07;9.10;;;3.20;1.00;;;;;;5097596;28;20173;-38
2023/01/29 08:45:39;;;;;;;10.67;9.57;;;3.30;1.00;;;;;;5097502;28;20180;-38
2023/01/29 08:48:05;;;;;;;11.27;9.60;;;3.30;1.00;;;;;;5095600;28;20713;-38
2023/01/29 08:50:31;;;;;;;9.97;8.97;;;3.30;1.00;;;;;;5096424;28;20418;-37
2023/01/29 08:52:58;;;;;;;10.63;9.63;;;3.30;1.00;;;;;;5096535;28;20619;-38
2023/01/29 08:55:24;;;;;;;10.00;9.00;;;3.40;1.00;;;;;;5098598;28;20469;-38
2023/01/29 08:57:50;;;;;;;9.83;8.93;;;3.40;1.00;;;;;;5098677;28;20822;-36
2023/01/29 09:00:16;;;;;;;10.40;9.40;;;3.40;1.00;;;;;;5098439;28;20517;-37
2023/01/29 09:02:41;;;;;;;12.70;11.40;;;3.50;1.00;;;;;;5097481;28;20184;-37
2023/01/29 09:05:08;;;;;;;10.30;9.33;;;3.50;1.00;;;;;;5097149;28;20586;-37
2023/01/29 09:07:33;;;;;;;9.70;8.80;;;3.60;1.00;;;;;;5095489;28;20303;-38
2023/01/29 09:09:59;;;;;;;10.80;9.73;;;3.70;1.00;;;;;;5097100;28;20497;-36
2023/01/29 09:12:25;;;;;;;10.70;9.60;;;3.80;1.00;;;;;;5096925;28;20226;-37
2023/01/29 09:14:50;;;;;;;10.23;9.00;;;3.90;1.00;;;;;;5096625;28;20261;-38
2023/01/29 09:17:16;;;;;;;9.63;8.67;;;4.00;1.00;;;;;;5096921;28;20182;-37
2023/01/29 09:19:41;;;;;;;11.37;10.20;;;4.10;1.00;;;;;;5094040;28;20184;-37
2023/01/29 09:22:07;;;;;;;10.60;9.00;;;4.20;1.00;;;;;;5096918;28;20257;-38
2023/01/29 09:24:33;;;;;;;10.53;9.53;;;4.40;1.00;;;;;;5096175;28;20247;-38
2023/01/29 09:27:00;;;;;;;9.83;8.77;;;4.50;1.00;;;;;;5097385;28;20180;-38
2023/01/29 09:29:25;;;;;;;10.60;9.50;;;4.60;1.00;;;;;;5098125;28;20443;-39
2023/01/29 09:31:51;;;;;;;10.73;9.83;;;4.70;1.00;;;;;;5098089;28;20525;-38
2023/01/29 09:34:17;;;;;;;11.63;10.53;;;4.70;1.00;;;;;;5097921;28;20247;-37
2023/01/29 09:36:42;;;;;;;10.93;9.93;;;4.80;1.00;;;;;;5098133;28;20172;-37
2023/01/29 09:39:08;;;;;;;11.33;10.30;;;4.80;1.00;;;;;;5098268;28;20185;-38
2023/01/29 09:41:55;;;;;;;12.17;10.03;;;4.80;1.00;;;;;;5097373;28;20549;-38
2023/01/29 09:44:36;;;;;;;10.63;9.67;;;4.90;1.00;;;;;;5096375;28;20245;-38
2023/01/29 09:47:04;;;;;;;11.37;10.27;;;5.00;1.00;;;;;;5098842;28;20569;-38
2023/01/29 09:49:36;;;;;;;9.60;8.70;;;5.10;1.00;;;;;;5098163;28;20407;-39
2023/01/29 09:52:04;;;;;;;10.77;9.77;;;5.20;1.00;;;;;;5094712;28;20422;-39
2023/01/29 09:54:35;;;;;;;11.70;10.60;;;5.30;1.00;;;;;;5095158;28;20462;-38
2023/01/29 09:57:00;;;;;;;10.10;9.20;;;5.40;1.00;;;;;;5075702;28;20430;-38
2023/01/29 09:59:29;;;;;;;10.50;8.97;;;5.40;1.00;;;;;;5093193;28;20468;-37
2023/01/29 10:02:08;;;;;;;11.00;10.00;;;5.50;1.00;;;;;;5076297;28;20562;-37
2023/01/29 10:05:27;;;;;;;10.93;9.87;;;5.50;1.00;;;;;;5093022;28;20843;-37
2023/01/29 10:07:59;;;;;;;10.87;9.87;;;5.70;1.00;;;;;;5034354;28;20553;-37
2023/01/29 10:10:42;;;;;;;10.80;9.83;;;5.80;1.00;;;;;;5034696;28;20429;-37
2023/01/29 10:13:33;;;;;;;11.57;10.37;;;6.00;1.00;;;;;;5074379;28;20719;-36
2023/01/29 10:16:21;;;;;;;10.40;9.40;;;6.20;1.00;;;;;;5094884;28;20469;-37
2023/01/29 10:18:49;;;;;;;10.30;9.40;;;6.50;1.00;;;;;;5094190;28;20866;-38
2023/01/29 10:21:44;;;;;;;10.37;9.37;;;6.90;1.00;;;;;;5094733;28;20511;-37
2023/01/29 10:24:51;;;;;;;10.53;9.63;;;7.20;1.00;;;;;;5095466;28;20573;-38
2023/01/29 10:27:17;;;;;;;11.60;10.50;;;7.40;1.00;;;;;;5065648;28;20442;-38
2023/01/29 10:29:45;;;;;;;10.30;9.30;;;7.60;1.00;;;;;;5094280;28;20399;-38
2023/01/29 10:32:15;;;;;;;11.70;10.60;;;7.80;1.00;;;;;;5094077;28;20415;-38
2023/01/29 10:35:03;;;;;;;11.20;10.10;;;8.00;1.00;;;;;;5095767;28;20557;-38
2023/01/29 10:37:41;;;;;;;10.00;9.07;;;8.20;1.00;;;;;;5096417;28;20456;-38
2023/01/29 10:40:20;;;;;;;13.60;10.30;;;8.30;1.00;;;;;;5095712;28;20469;-39
2023/01/29 10:42:56;;;;;;;10.63;9.63;;;8.40;1.00;;;;;;5095972;28;20421;-36
2023/01/29 10:45:21;;;;;;;10.33;9.33;;;8.50;1.00;;;;;;5094388;28;20540;-36
2023/01/29 10:48:05;;;;;;;10.63;9.67;;;8.80;1.00;;;;;;5096044;28;20783;-37
2023/01/29 10:50:46;;;;;;;12.00;10.90;;;9.30;1.00;;;;;;5095997;28;20717;-37
2023/01/29 10:53:15;;;;;;;10.60;9.63;;;9.70;1.00;;;;;;5095605;28;20422;-37
2023/01/29 10:55:53;;;;;;;10.20;9.40;;;9.90;1.00;;;;;;5096169;28;20450;-37
2023/01/29 10:58:21;;;;;;;10.27;9.30;;;10.00;1.00;;;;;;5095699;28;20514;-38
2023/01/29 11:00:47;;;;;;;10.10;9.20;;;10.10;1.00;;;;;;5078577;28;20437;-37
2023/01/29 11:03:15;;;;;;;10.40;9.53;;;10.10;1.00;;;;;;5094537;28;20429;-36
2023/01/29 11:05:47;;;;;;;12.57;11.37;;;10.10;1.00;;;;;;5096729;28;20266;-37
2023/01/29 11:08:18;;;;;;;10.50;9.50;;;10.10;1.00;;;;;;5094813;28;20434;-37
2023/01/29 11:10:51;;;;;;;10.50;9.50;;;10.00;1.00;;;;;;5095516;28;20410;-37
2023/01/29 11:13:17;;;;;;;11.00;9.90;;;10.10;1.00;;;;;;5096025;28;20499;-37
2023/01/29 11:15:43;;;;;;;10.67;9.57;;;10.00;1.00;;;;;;5094736;28;20778;-39
2023/01/29 11:18:12;;;;;;;11.23;9.83;;;10.00;1.00;;;;;;5094419;28;20172;-37
2023/01/29 11:20:40;;;;;;;8.57;7.87;;;10.00;1.00;;;;;;5094957;28;20177;-38
2023/01/29 11:23:05;;;;;;;9.23;8.43;;;10.00;1.00;;;;;;5094157;28;20561;-37
2023/01/29 11:25:31;;;;;;;7.63;2.90;;;10.00;1.00;;;;;;5095526;28;20533;-40
2023/01/29 11:28:00;;;;;;;3.50;3.20;;;10.80;45.40;;;;;;5095218;28;20196;-41
2023/01/29 11:30:29;;;;;;;4.40;3.60;;;11.40;1.00;;;;;;5098069;28;20487;-40
2023/01/29 11:33:05;;;;;;;5.67;4.00;;;12.40;1.00;;;;;;5110120;28;20859;-39
2023/01/29 11:35:32;;;;;;;4.07;3.73;;;13.10;1.00;;;;;;5111336;28;20468;-39
2023/01/29 11:38:17;;;;;;;3.97;3.57;;;13.70;99.90;;;;;;5108360;28;20502;-37
2023/01/29 11:40:43;;;;;;;5.37;4.87;;;14.40;99.90;;;;;;5108735;28;20831;-37
2023/01/29 11:43:30;;;;;;;8.10;7.40;;;14.60;17.40;;;;;;5103510;28;20854;-37
2023/01/29 11:46:10;;;;;;;8.17;7.37;;;14.40;1.00;;;;;;5095455;28;20418;-37
2023/01/29 11:48:52;;;;;;;7.77;7.17;;;13.90;1.00;;;;;;5094339;28;20430;-36
2023/01/29 11:51:28;;;;;;;9.10;8.20;;;13.40;1.00;;;;;;5093910;28;20407;-38
2023/01/29 11:53:56;;;;;;;9.60;8.80;;;12.90;1.00;;;;;;5094369;28;20418;-38
2023/01/29 11:56:38;;;;;;;9.67;8.87;;;12.50;1.00;;;;;;5093910;28;20815;-39
2023/01/29 11:59:04;;;;;;;10.13;9.23;;;12.10;1.00;;;;;;5094636;28;20414;-38
2023/01/29 12:01:37;;;;;;;10.50;8.67;;;11.90;1.00;;;;;;5096087;28;20406;-38
2023/01/29 12:04:32;;;;;;;10.33;9.43;;;11.70;1.00;;;;;;5093510;28;20429;-40
2023/01/29 12:06:58;;;;;;;9.90;9.00;;;11.60;1.00;;;;;;5077680;28;20931;-39
2023/01/29 12:09:26;;;;;;;14.57;12.10;;;11.60;1.00;;;;;;5095222;28;20847;-38
2023/01/29 12:11:53;;;;;;;17.57;13.77;;;11.60;1.00;;;;;;5093726;28;20430;-37
2023/01/29 12:14:32;;;;;;;14.03;12.60;;;11.50;1.00;;;;;;5093827;28;20596;-37
2023/01/29 12:17:18;;;;;;;14.00;12.50;;;11.40;1.00;;;;;;5093034;28;20908;-38
2023/01/29 12:19:58;;;;;;;13.07;11.77;;;11.20;1.00;;;;;;5093470;28;20429;-38
2023/01/29 12:22:36;;;;;;;11.90;10.70;;;11.10;1.00;;;;;;5092783;28;20413;-38
2023/01/29 12:25:41;;;;;;;12.17;11.07;;;11.20;1.00;;;;;;5100265;28;20461;-37
2023/01/29 12:28:07;;;;;;;11.23;10.23;;;11.80;1.00;;;;;;5113417;28;20417;-38
2023/01/29 12:30:35;;;;;;;9.80;8.90;;;12.50;1.00;;;;;;5113569;28;20462;-38
2023/01/29 12:33:36;;;;;;;11.20;10.00;;;13.00;1.00;;;;;;5112899;28;20167;-38
2023/01/29 12:36:23;;;;;;;10.10;9.20;;;13.70;1.00;;;;;;5105084;28;20579;-38
2023/01/29 12:38:49;;;;;;;10.37;9.37;;;14.60;1.00;;;;;;5110622;28;20409;-39
2023/01/29 12:41:23;;;;;;;10.10;9.30;;;15.40;1.00;;;;;;5109433;28;20478;-37
2023/01/29 12:43:53;;;;;;;9.67;8.87;;;16.00;1.00;;;;;;5091246;28;20176;-37
2023/01/29 12:46:30;;;;;;;9.87;8.97;;;16.70;1.00;;;;;;5092249;28;20479;-37
2023/01/29 12:48:59;;;;;;;9.70;8.90;;;17.10;1.00;;;;;;5073046;28;20422;-37
2023/01/29 12:51:30;;;;;;;10.53;9.43;;;17.60;1.00;;;;;;5091522;28;20846;-37
2023/01/29 12:54:06;;;;;;;10.57;9.60;;;17.80;1.00;;;;;;5077978;28;20439;-36
2023/01/29 12:56:41;;;;;;;9.10;8.40;;;18.00;1.00;;;;;;5098316;28;20448;-39
2023/01/29 12:59:18;;;;;;;10.10;9.20;;;18.50;1.00;;;;;;5079309;28;20417;-38
2023/01/29 13:02:19;;;;;;;10.23;9.37;;;19.00;1.00;;;;;;5116414;28;20501;-38
2023/01/29 13:05:15;;;;;;;9.20;7.83;;;19.70;1.00;;;;;;5087789;28;20445;-39
2023/01/29 13:07:45;;;;;;;9.93;9.03;;;20.50;1.00;;;;;;5110809;28;20424;-38
2023/01/29 13:10:13;;;;;;;8.90;8.20;;;21.30;1.00;;;;;;5099003;28;20522;-39
2023/01/29 13:12:46;;;;;;;8.20;7.50;;;22.10;1.00;;;;;;5116381;28;20409;-40
2023/01/29 13:15:28;;;;;;;8.57;7.87;;;22.80;1.00;;;;;;5115633;28;21041;-38
2023/01/29 13:18:15;;;;;;;9.80;9.00;;;23.60;1.00;;;;;;5114132;28;20441;-39
2023/01/29 13:20:42;;;;;;;9.30;8.50;;;23.90;1.00;;;;;;5097990;28;20415;-39
2023/01/29 13:23:24;;;;;;;8.23;7.53;;;24.20;1.00;;;;;;5098306;28;20447;-38
2023/01/29 13:25:53;;;;;;;8.90;8.00;;;23.80;1.00;;;;;;5098355;28;20425;-37
2023/01/29 13:28:21;;;;;;;8.70;7.93;;;23.30;1.00;;;;;;5097495;28;20422;-38
2023/01/29 13:31:10;;;;;;;7.73;7.20;;;22.80;1.00;;;;;;5096055;28;20789;-40
2023/01/29 13:33:36;;;;;;;8.80;8.10;;;22.60;1.00;;;;;;5096630;28;20422;-39
2023/01/29 13:36:02;;;;;;;7.27;6.77;;;22.80;1.00;;;;;;5094591;28;20498;-38
2023/01/29 13:38:31;;;;;;;8.20;7.60;;;22.80;1.00;;;;;;5094997;28;20480;-38
2023/01/29 13:41:00;;;;;;;8.53;7.83;;;22.80;1.00;;;;;;5094030;28;20176;-38
2023/01/29 13:43:26;;;;;;;8.77;7.97;;;22.30;1.00;;;;;;5095865;28;20732;-38
2023/01/29 13:45:53;;;;;;;7.77;7.17;;;21.60;1.00;;;;;;5094479;28;20406;-38